sensor_id;sensor_type;location;lat;lon;timestamp;temperature;humidity
44063;DHT22;29727;47.606;19.130;2023-05-10T05:23:08;14.60;68.50
44063;DHT22;29727;47.606;19.130;2023-05-10T05:25:34;14.70;69.10
44063;DHT22;29727;47.606;19.130;2023-05-10T05:28:00;14.70;69.10
44063;DHT22;29727;47.606;19.130;2023-05-10T05:30:27;14.70;68.40
44063;DHT22;29727;47.606;19.130;2023-05-10T05:32:52;14.70;69.10
44063;DHT22;29727;47.606;19.130;2023-05-10T05:35:18;14.80;68.80
44063;DHT22;29727;47.606;19.130;2023-05-10T05:37:44;14.80;68.70
44063;DHT22;29727;47.606;19.130;2023-05-10T05:40:12;14.80;68.60
44063;DHT22;29727;47.606;19.130;2023-05-10T05:42:39;14.80;68.90
44063;DHT22;29727;47.606;19.130;2023-05-10T05:45:05;14.90;69.40
44063;DHT22;29727;47.606;19.130;2023-05-10T05:47:30;14.90;69.60
44063;DHT22;29727;47.606;19.130;2023-05-10T06:08:32;15.10;66.70
44063;DHT22;29727;47.606;19.130;2023-05-10T06:10:59;15.20;66.10
44063;DHT22;29727;47.606;19.130;2023-05-10T06:13:25;15.20;66.70
44063;DHT22;29727;47.606;19.130;2023-05-10T06:15:57;15.20;66.90
44063;DHT22;29727;47.606;19.130;2023-05-10T06:18:23;15.30;64.70
44063;DHT22;29727;47.606;19.130;2023-05-10T06:20:49;15.30;66.00
44063;DHT22;29727;47.606;19.130;2023-05-10T06:25:44;15.40;65.80
44063;DHT22;29727;47.606;19.130;2023-05-10T06:28:10;15.40;65.30
44063;DHT22;29727;47.606;19.130;2023-05-10T06:30:36;15.70;65.60
44063;DHT22;29727;47.606;19.130;2023-05-10T06:37:55;15.60;65.80
44063;DHT22;29727;47.606;19.130;2023-05-10T06:42:47;15.70;65.50
44063;DHT22;29727;47.606;19.130;2023-05-10T06:52:33;16.10;65.10
44063;DHT22;29727;47.606;19.130;2023-05-10T06:54:59;16.30;64.80
44063;DHT22;29727;47.606;19.130;2023-05-10T06:59:52;16.50;63.50
44063;DHT22;29727;47.606;19.130;2023-05-10T07:02:20;16.40;62.80
44063;DHT22;29727;47.606;19.130;2023-05-10T07:07:14;16.50;62.30
44063;DHT22;29727;47.606;19.130;2023-05-10T07:09:39;16.50;62.30
44063;DHT22;29727;47.606;19.130;2023-05-10T07:12:05;16.50;62.30
44063;DHT22;29727;47.606;19.130;2023-05-10T07:14:31;16.50;62.60
44063;DHT22;29727;47.606;19.130;2023-05-10T07:21:49;16.60;63.10
44063;DHT22;29727;47.606;19.130;2023-05-10T07:31:37;16.80;62.30
44063;DHT22;29727;47.606;19.130;2023-05-10T07:34:03;16.70;61.50
44063;DHT22;29727;47.606;19.130;2023-05-10T07:41:22;17.10;60.00
44063;DHT22;29727;47.606;19.130;2023-05-10T07:43:48;17.10;60.20
44063;DHT22;29727;47.606;19.130;2023-05-10T07:46:14;17.20;61.50
44063;DHT22;29727;47.606;19.130;2023-05-10T07:48:40;17.20;61.40
44063;DHT22;29727;47.606;19.130;2023-05-10T07:56:27;17.30;60.80
44063;DHT22;29727;47.606;19.130;2023-05-10T07:58:59;17.30;60.90
44063;DHT22;29727;47.606;19.130;2023-05-10T08:29:43;18.50;58.40
44063;DHT22;29727;47.606;19.130;2023-05-10T08:32:09;18.50;58.70
44063;DHT22;29727;47.606;19.130;2023-05-10T08:34:35;18.50;59.00
44063;DHT22;29727;47.606;19.130;2023-05-10T08:37:00;18.50;58.00
44063;DHT22;29727;47.606;19.130;2023-05-10T08:39:26;18.40;56.90
44063;DHT22;29727;47.606;19.130;2023-05-10T08:41:53;18.50;57.20
44063;DHT22;29727;47.606;19.130;2023-05-10T08:44:20;18.40;57.30
44063;DHT22;29727;47.606;19.130;2023-05-10T08:46:46;18.50;57.20
44063;DHT22;29727;47.606;19.130;2023-05-10T08:49:17;18.40;57.90
44063;DHT22;29727;47.606;19.130;2023-05-10T08:51:54;18.40;58.40
44063;DHT22;29727;47.606;19.130;2023-05-10T08:54:21;18.50;58.40
44063;DHT22;29727;47.606;19.130;2023-05-10T08:56:47;18.60;57.80
44063;DHT22;29727;47.606;19.130;2023-05-10T08:59:13;18.60;58.20
44063;DHT22;29727;47.606;19.130;2023-05-10T09:01:40;18.80;55.80
44063;DHT22;29727;47.606;19.130;2023-05-10T09:04:07;18.80;55.20
44063;DHT22;29727;47.606;19.130;2023-05-10T09:06:33;18.90;56.40
44063;DHT22;29727;47.606;19.130;2023-05-10T09:11:26;19.10;56.10
44063;DHT22;29727;47.606;19.130;2023-05-10T09:13:54;19.20;55.60
44063;DHT22;29727;47.606;19.130;2023-05-10T09:16:21;19.30;55.10
44063;DHT22;29727;47.606;19.130;2023-05-10T09:23:43;19.50;54.50
44063;DHT22;29727;47.606;19.130;2023-05-10T09:26:09;19.60;54.30
44063;DHT22;29727;47.606;19.130;2023-05-10T09:28:53;19.80;55.20
44063;DHT22;29727;47.606;19.130;2023-05-10T09:33:47;20.10;53.50
44063;DHT22;29727;47.606;19.130;2023-05-10T09:38:53;20.30;53.10
44063;DHT22;29727;47.606;19.130;2023-05-10T09:41:22;20.50;51.90
44063;DHT22;29727;47.606;19.130;2023-05-10T09:43:49;20.50;50.80
44063;DHT22;29727;47.606;19.130;2023-05-10T09:46:15;20.60;51.20
44063;DHT22;29727;47.606;19.130;2023-05-10T09:48:43;20.60;50.90
44063;DHT22;29727;47.606;19.130;2023-05-10T09:51:09;20.50;50.70
44063;DHT22;29727;47.606;19.130;2023-05-10T09:53:35;20.40;52.80
44063;DHT22;29727;47.606;19.130;2023-05-10T09:58:27;20.60;52.00
44063;DHT22;29727;47.606;19.130;2023-05-10T10:03:21;20.90;49.80
44063;DHT22;29727;47.606;19.130;2023-05-10T10:05:48;21.00;50.60
44063;DHT22;29727;47.606;19.130;2023-05-10T10:08:14;21.00;49.80
44063;DHT22;29727;47.606;19.130;2023-05-10T10:10:41;21.00;49.60
44063;DHT22;29727;47.606;19.130;2023-05-10T10:13:07;20.90;49.70
44063;DHT22;29727;47.606;19.130;2023-05-10T10:15:35;20.90;49.30
44063;DHT22;29727;47.606;19.130;2023-05-10T10:28:38;20.70;48.90
44063;DHT22;29727;47.606;19.130;2023-05-10T10:31:27;20.70;49.90
44063;DHT22;29727;47.606;19.130;2023-05-10T10:36:27;20.80;49.50
44063;DHT22;29727;47.606;19.130;2023-05-10T10:39:00;20.80;49.60
44063;DHT22;29727;47.606;19.130;2023-05-10T10:41:29;20.90;50.40
44063;DHT22;29727;47.606;19.130;2023-05-10T10:52:42;21.60;47.40
44063;DHT22;29727;47.606;19.130;2023-05-10T10:55:12;21.70;48.00
44063;DHT22;29727;47.606;19.130;2023-05-10T10:57:48;21.80;47.90
44063;DHT22;29727;47.606;19.130;2023-05-10T11:08:15;22.10;48.20
44063;DHT22;29727;47.606;19.130;2023-05-10T11:11:03;22.10;47.40
44063;DHT22;29727;47.606;19.130;2023-05-10T11:13:34;22.30;47.50
44063;DHT22;29727;47.606;19.130;2023-05-10T11:16:18;22.30;47.20
44063;DHT22;29727;47.606;19.130;2023-05-10T11:19:06;22.40;46.60
44063;DHT22;29727;47.606;19.130;2023-05-10T11:21:33;22.30;46.10
44063;DHT22;29727;47.606;19.130;2023-05-10T11:24:01;22.20;46.90
44063;DHT22;29727;47.606;19.130;2023-05-10T11:26:33;22.10;47.20
44063;DHT22;29727;47.606;19.130;2023-05-10T11:29:00;22.00;46.70
44063;DHT22;29727;47.606;19.130;2023-05-10T11:31:27;21.90;46.20
44063;DHT22;29727;47.606;19.130;2023-05-10T11:33:58;21.80;46.20
44063;DHT22;29727;47.606;19.130;2023-05-10T11:36:25;21.70;46.50
44063;DHT22;29727;47.606;19.130;2023-05-10T14:16:54;22.50;42.10
44063;DHT22;29727;47.606;19.130;2023-05-10T14:19:20;22.20;42.70
44063;DHT22;29727;47.606;19.130;2023-05-10T14:21:46;22.20;43.20
44063;DHT22;29727;47.606;19.130;2023-05-10T14:24:11;22.20;43.50
44063;DHT22;29727;47.606;19.130;2023-05-10T14:26:37;22.00;44.60
44063;DHT22;29727;47.606;19.130;2023-05-10T14:29:03;21.70;44.60
44063;DHT22;29727;47.606;19.130;2023-05-10T14:31:28;21.90;45.30
44063;DHT22;29727;47.606;19.130;2023-05-10T14:33:55;21.80;44.70
44063;DHT22;29727;47.606;19.130;2023-05-10T14:36:21;21.80;44.70
44063;DHT22;29727;47.606;19.130;2023-05-10T14:38:47;21.80;45.20
44063;DHT22;29727;47.606;19.130;2023-05-10T15:06:39;21.90;41.60
44063;DHT22;29727;47.606;19.130;2023-05-10T15:09:05;21.80;42.50
44063;DHT22;29727;47.606;19.130;2023-05-10T15:11:31;21.80;43.10
44063;DHT22;29727;47.606;19.130;2023-05-10T15:13:56;21.80;43.70
44063;DHT22;29727;47.606;19.130;2023-05-10T15:16:22;21.90;42.80
44063;DHT22;29727;47.606;19.130;2023-05-10T15:18:48;21.80;43.20
44063;DHT22;29727;47.606;19.130;2023-05-10T15:21:14;21.80;43.90
44063;DHT22;29727;47.606;19.130;2023-05-10T15:23:39;21.80;43.00
44063;DHT22;29727;47.606;19.130;2023-05-10T15:26:05;21.80;43.70
44063;DHT22;29727;47.606;19.130;2023-05-10T15:28:31;21.80;43.40
44063;DHT22;29727;47.606;19.130;2023-05-10T15:30:56;21.70;43.20
44063;DHT22;29727;47.606;19.130;2023-05-10T15:48:57;21.70;44.40
44063;DHT22;29727;47.606;19.130;2023-05-10T15:51:26;21.70;44.80
44063;DHT22;29727;47.606;19.130;2023-05-10T15:53:51;21.60;44.20
44063;DHT22;29727;47.606;19.130;2023-05-10T15:56:17;21.60;44.60
44063;DHT22;29727;47.606;19.130;2023-05-10T15:58:43;21.50;45.50
44063;DHT22;29727;47.606;19.130;2023-05-10T16:01:09;21.40;45.00
44063;DHT22;29727;47.606;19.130;2023-05-10T16:03:36;21.30;45.40
44063;DHT22;29727;47.606;19.130;2023-05-10T16:06:02;21.30;45.50
44063;DHT22;29727;47.606;19.130;2023-05-10T16:08:28;21.20;45.70
44063;DHT22;29727;47.606;19.130;2023-05-10T16:10:58;21.20;46.40
44063;DHT22;29727;47.606;19.130;2023-05-10T16:13:24;21.10;45.90
44063;DHT22;29727;47.606;19.130;2023-05-10T16:15:50;21.10;45.70
44063;DHT22;29727;47.606;19.130;2023-05-10T16:18:16;21.10;46.70
44063;DHT22;29727;47.606;19.130;2023-05-10T16:20:43;21.00;46.20
44063;DHT22;29727;47.606;19.130;2023-05-10T19:48:53;18.80;49.90
44063;DHT22;29727;47.606;19.130;2023-05-10T19:51:18;18.80;50.40
44063;DHT22;29727;47.606;19.130;2023-05-10T19:56:10;18.70;49.90
44063;DHT22;29727;47.606;19.130;2023-05-10T19:58:37;18.70;50.90
44063;DHT22;29727;47.606;19.130;2023-05-10T20:01:02;18.70;51.30
44063;DHT22;29727;47.606;19.130;2023-05-10T20:03:30;18.70;50.10
44063;DHT22;29727;47.606;19.130;2023-05-10T20:05:57;18.60;49.90
44063;DHT22;29727;47.606;19.130;2023-05-10T20:08:23;18.60;49.40
44063;DHT22;29727;47.606;19.130;2023-05-10T20:10:49;18.60;50.10
44063;DHT22;29727;47.606;19.130;2023-05-10T20:13:15;18.50;51.10
44063;DHT22;29727;47.606;19.130;2023-05-10T20:15:40;18.50;50.40
